sensor_id;sensor_type;location;lat;lon;timestamp;P1;durP1;ratioP1;P2;durP2;ratioP2
27778;SDS011;30234;48.090;11.464;2023-07-13T00:03:58;5.80;;;3.13;;
27778;SDS011;30234;48.090;11.464;2023-07-13T00:07:59;6.05;;;3.53;;
27778;SDS011;30234;48.090;11.464;2023-07-13T00:17:44;3.13;;;2.78;;
27778;SDS011;30234;48.090;11.464;2023-07-13T00:21:44;5.90;;;2.88;;
27778;SDS011;30234;48.090;11.464;2023-07-13T00:25:45;3.17;;;2.40;;
27778;SDS011;30234;48.090;11.464;2023-07-13T00:29:46;3.13;;;2.53;;
27778;SDS011;30234;48.090;11.464;2023-07-13T00:33:47;3.38;;;2.35;;
27778;SDS011;30234;48.090;11.464;2023-07-13T00:37:48;3.33;;;2.42;;
27778;SDS011;30234;48.090;11.464;2023-07-13T00:41:50;3.28;;;2.67;;
27778;SDS011;30234;48.090;11.464;2023-07-13T00:49:52;3.00;;;2.30;;
27778;SDS011;30234;48.090;11.464;2023-07-13T00:53:53;4.80;;;2.10;;
27778;SDS011;30234;48.090;11.464;2023-07-13T00:57:57;2.95;;;2.08;;
27778;SDS011;30234;48.090;11.464;2023-07-13T01:01:58;3.50;;;1.83;;
27778;SDS011;30234;48.090;11.464;2023-07-13T01:05:59;2.30;;;2.10;;
27778;SDS011;30234;48.090;11.464;2023-07-13T01:10:00;5.43;;;2.85;;
27778;SDS011;30234;48.090;11.464;2023-07-13T01:14:02;2.63;;;1.98;;
27778;SDS011;30234;48.090;11.464;2023-07-13T01:18:04;3.40;;;2.33;;
27778;SDS011;30234;48.090;11.464;2023-07-13T01:22:12;3.70;;;2.50;;
27778;SDS011;30234;48.090;11.464;2023-07-13T01:26:16;2.63;;;2.42;;
27778;SDS011;30234;48.090;11.464;2023-07-13T01:30:17;3.28;;;2.35;;
27778;SDS011;30234;48.090;11.464;2023-07-13T01:34:18;2.92;;;2.30;;
27778;SDS011;30234;48.090;11.464;2023-07-13T01:38:20;3.70;;;2.17;;
27778;SDS011;30234;48.090;11.464;2023-07-13T01:42:22;2.42;;;2.22;;
27778;SDS011;30234;48.090;11.464;2023-07-13T01:46:23;3.90;;;2.55;;
27778;SDS011;30234;48.090;11.464;2023-07-13T01:50:24;2.75;;;2.13;;
27778;SDS011;30234;48.090;11.464;2023-07-13T01:54:26;3.92;;;2.15;;
27778;SDS011;30234;48.090;11.464;2023-07-13T01:58:27;2.42;;;2.00;;
27778;SDS011;30234;48.090;11.464;2023-07-13T02:02:28;3.47;;;1.88;;
27778;SDS011;30234;48.090;11.464;2023-07-13T02:06:30;2.53;;;2.03;;
27778;SDS011;30234;48.090;11.464;2023-07-13T02:10:30;3.13;;;2.10;;
27778;SDS011;30234;48.090;11.464;2023-07-13T02:14:31;3.17;;;1.90;;
27778;SDS011;30234;48.090;11.464;2023-07-13T02:18:32;4.35;;;2.33;;
27778;SDS011;30234;48.090;11.464;2023-07-13T02:22:33;3.97;;;1.80;;
27778;SDS011;30234;48.090;11.464;2023-07-13T02:26:34;2.92;;;2.35;;
27778;SDS011;30234;48.090;11.464;2023-07-13T02:30:36;3.15;;;2.08;;
27778;SDS011;30234;48.090;11.464;2023-07-13T02:34:38;4.07;;;2.22;;
27778;SDS011;30234;48.090;11.464;2023-07-13T02:38:42;2.65;;;1.88;;
27778;SDS011;30234;48.090;11.464;2023-07-13T02:42:42;7.32;;;2.92;;
27778;SDS011;30234;48.090;11.464;2023-07-13T02:46:45;4.50;;;3.35;;
27778;SDS011;30234;48.090;11.464;2023-07-13T02:50:46;5.78;;;3.75;;
27778;SDS011;30234;48.090;11.464;2023-07-13T02:54:46;9.10;;;3.60;;
27778;SDS011;30234;48.090;11.464;2023-07-13T02:58:47;10.40;;;3.50;;
27778;SDS011;30234;48.090;11.464;2023-07-13T03:02:48;4.05;;;3.20;;
27778;SDS011;30234;48.090;11.464;2023-07-13T03:06:49;3.60;;;3.30;;
27778;SDS011;30234;48.090;11.464;2023-07-13T03:10:58;7.78;;;3.53;;
27778;SDS011;30234;48.090;11.464;2023-07-13T03:15:04;6.85;;;3.45;;
27778;SDS011;30234;48.090;11.464;2023-07-13T03:19:05;4.78;;;3.28;;
27778;SDS011;30234;48.090;11.464;2023-07-13T03:23:06;3.17;;;2.72;;
27778;SDS011;30234;48.090;11.464;2023-07-13T03:27:07;5.22;;;3.00;;
27778;SDS011;30234;48.090;11.464;2023-07-13T03:31:13;3.42;;;2.72;;
27778;SDS011;30234;48.090;11.464;2023-07-13T03:35:18;4.77;;;3.27;;
27778;SDS011;30234;48.090;11.464;2023-07-13T03:39:18;4.05;;;3.00;;
27778;SDS011;30234;48.090;11.464;2023-07-13T03:43:19;4.95;;;3.13;;
27778;SDS011;30234;48.090;11.464;2023-07-13T03:47:20;4.72;;;3.17;;
27778;SDS011;30234;48.090;11.464;2023-07-13T03:51:21;6.10;;;3.20;;
27778;SDS011;30234;48.090;11.464;2023-07-13T03:55:22;3.50;;;2.72;;
27778;SDS011;30234;48.090;11.464;2023-07-13T03:59:23;3.72;;;3.30;;
27778;SDS011;30234;48.090;11.464;2023-07-13T04:03:24;5.22;;;2.83;;
27778;SDS011;30234;48.090;11.464;2023-07-13T04:07:25;6.28;;;2.78;;
27778;SDS011;30234;48.090;11.464;2023-07-13T04:11:28;4.28;;;2.20;;
27778;SDS011;30234;48.090;11.464;2023-07-13T04:15:31;3.17;;;2.80;;
27778;SDS011;30234;48.090;11.464;2023-07-13T04:19:32;8.15;;;2.70;;
27778;SDS011;30234;48.090;11.464;2023-07-13T04:23:33;3.08;;;2.78;;
27778;SDS011;30234;48.090;11.464;2023-07-13T04:27:34;3.80;;;2.67;;
27778;SDS011;30234;48.090;11.464;2023-07-13T04:31:35;5.53;;;2.83;;
27778;SDS011;30234;48.090;11.464;2023-07-13T04:35:36;6.30;;;3.30;;
27778;SDS011;30234;48.090;11.464;2023-07-13T04:39:37;3.72;;;2.72;;
27778;SDS011;30234;48.090;11.464;2023-07-13T04:43:38;2.92;;;2.53;;
27778;SDS011;30234;48.090;11.464;2023-07-13T04:47:39;3.13;;;2.70;;
27778;SDS011;30234;48.090;11.464;2023-07-13T04:51:40;6.30;;;2.40;;
27778;SDS011;30234;48.090;11.464;2023-07-13T04:55:41;3.25;;;2.85;;
27778;SDS011;30234;48.090;11.464;2023-07-13T04:59:42;5.78;;;2.28;;
27778;SDS011;30234;48.090;11.464;2023-07-13T05:03:42;3.05;;;2.45;;
27778;SDS011;30234;48.090;11.464;2023-07-13T05:07:43;4.95;;;2.58;;
27778;SDS011;30234;48.090;11.464;2023-07-13T05:11:44;4.88;;;2.35;;
27778;SDS011;30234;48.090;11.464;2023-07-13T05:15:45;3.13;;;2.60;;
27778;SDS011;30234;48.090;11.464;2023-07-13T05:19:48;3.10;;;2.15;;
27778;SDS011;30234;48.090;11.464;2023-07-13T05:23:49;3.10;;;2.60;;
27778;SDS011;30234;48.090;11.464;2023-07-13T05:27:50;3.45;;;2.25;;
27778;SDS011;30234;48.090;11.464;2023-07-13T05:31:51;4.25;;;3.17;;
27778;SDS011;30234;48.090;11.464;2023-07-13T05:35:52;5.32;;;2.67;;
27778;SDS011;30234;48.090;11.464;2023-07-13T05:39:53;5.68;;;3.30;;
27778;SDS011;30234;48.090;11.464;2023-07-13T05:43:54;4.68;;;2.10;;
27778;SDS011;30234;48.090;11.464;2023-07-13T05:47:55;3.25;;;2.40;;
27778;SDS011;30234;48.090;11.464;2023-07-13T05:51:56;4.38;;;2.45;;
27778;SDS011;30234;48.090;11.464;2023-07-13T05:55:57;2.97;;;2.20;;
27778;SDS011;30234;48.090;11.464;2023-07-13T05:59:58;3.17;;;2.40;;
27778;SDS011;30234;48.090;11.464;2023-07-13T06:03:59;7.82;;;2.03;;
27778;SDS011;30234;48.090;11.464;2023-07-13T06:08:00;2.40;;;1.80;;
27778;SDS011;30234;48.090;11.464;2023-07-13T06:12:01;2.88;;;2.00;;
27778;SDS011;30234;48.090;11.464;2023-07-13T06:16:02;2.53;;;2.17;;
27778;SDS011;30234;48.090;11.464;2023-07-13T06:20:04;4.43;;;2.38;;
27778;SDS011;30234;48.090;11.464;2023-07-13T06:24:06;5.88;;;2.00;;
27778;SDS011;30234;48.090;11.464;2023-07-13T06:28:07;6.70;;;2.25;;
27778;SDS011;30234;48.090;11.464;2023-07-13T06:32:08;3.95;;;1.95;;
27778;SDS011;30234;48.090;11.464;2023-07-13T06:36:09;6.07;;;2.45;;
27778;SDS011;30234;48.090;11.464;2023-07-13T06:40:11;5.15;;;2.15;;
27778;SDS011;30234;48.090;11.464;2023-07-13T06:44:12;4.45;;;2.40;;
27778;SDS011;30234;48.090;11.464;2023-07-13T06:48:14;6.28;;;2.08;;
27778;SDS011;30234;48.090;11.464;2023-07-13T06:52:15;3.35;;;2.00;;
27778;SDS011;30234;48.090;11.464;2023-07-13T06:56:16;3.38;;;2.30;;
27778;SDS011;30234;48.090;11.464;2023-07-13T07:00:18;5.18;;;2.08;;
27778;SDS011;30234;48.090;11.464;2023-07-13T07:04:18;5.13;;;2.50;;
27778;SDS011;30234;48.090;11.464;2023-07-13T07:08:19;2.50;;;2.08;;
27778;SDS011;30234;48.090;11.464;2023-07-13T07:12:20;4.95;;;2.03;;
27778;SDS011;30234;48.090;11.464;2023-07-13T07:16:21;4.60;;;1.75;;
27778;SDS011;30234;48.090;11.464;2023-07-13T07:20:24;6.47;;;2.00;;
27778;SDS011;30234;48.090;11.464;2023-07-13T07:24:26;4.25;;;2.28;;
27778;SDS011;30234;48.090;11.464;2023-07-13T07:28:27;2.58;;;2.17;;
27778;SDS011;30234;48.090;11.464;2023-07-13T07:32:29;3.25;;;1.83;;
27778;SDS011;30234;48.090;11.464;2023-07-13T07:36:30;4.05;;;1.75;;
27778;SDS011;30234;48.090;11.464;2023-07-13T07:40:32;3.90;;;2.13;;
27778;SDS011;30234;48.090;11.464;2023-07-13T07:44:40;3.33;;;2.40;;
27778;SDS011;30234;48.090;11.464;2023-07-13T07:48:41;3.70;;;1.85;;
27778;SDS011;30234;48.090;11.464;2023-07-13T07:52:42;8.05;;;2.28;;
27778;SDS011;30234;48.090;11.464;2023-07-13T07:56:44;2.47;;;2.28;;
27778;SDS011;30234;48.090;11.464;2023-07-13T08:00:45;4.88;;;2.33;;
27778;SDS011;30234;48.090;11.464;2023-07-13T08:04:45;3.35;;;2.35;;
27778;SDS011;30234;48.090;11.464;2023-07-13T08:08:46;3.83;;;2.38;;
27778;SDS011;30234;48.090;11.464;2023-07-13T08:12:47;7.00;;;2.65;;
27778;SDS011;30234;48.090;11.464;2023-07-13T08:16:48;5.53;;;2.45;;
27778;SDS011;30234;48.090;11.464;2023-07-13T08:20:50;7.07;;;2.22;;
27778;SDS011;30234;48.090;11.464;2023-07-13T08:24:50;6.68;;;2.85;;
27778;SDS011;30234;48.090;11.464;2023-07-13T08:28:56;5.63;;;2.22;;
27778;SDS011;30234;48.090;11.464;2023-07-13T08:32:56;4.82;;;2.58;;
27778;SDS011;30234;48.090;11.464;2023-07-13T08:36:57;6.65;;;2.30;;
27778;SDS011;30234;48.090;11.464;2023-07-13T08:40:58;3.80;;;2.03;;
27778;SDS011;30234;48.090;11.464;2023-07-13T08:45:04;5.53;;;2.10;;
27778;SDS011;30234;48.090;11.464;2023-07-13T08:49:21;3.92;;;1.92;;
27778;SDS011;30234;48.090;11.464;2023-07-13T08:53:23;10.98;;;2.45;;
27778;SDS011;30234;48.090;11.464;2023-07-13T09:06:34;3.13;;;1.60;;
27778;SDS011;30234;48.090;11.464;2023-07-13T09:15:37;3.30;;;1.83;;
27778;SDS011;30234;48.090;11.464;2023-07-13T09:19:43;3.38;;;1.90;;
27778;SDS011;30234;48.090;11.464;2023-07-13T09:23:53;8.05;;;1.73;;
27778;SDS011;30234;48.090;11.464;2023-07-13T09:28:00;5.00;;;1.40;;
27778;SDS011;30234;48.090;11.464;2023-07-13T09:32:24;8.10;;;1.80;;
27778;SDS011;30234;48.090;11.464;2023-07-13T09:36:28;4.50;;;1.73;;
27778;SDS011;30234;48.090;11.464;2023-07-13T09:40:36;7.80;;;2.10;;
27778;SDS011;30234;48.090;11.464;2023-07-13T09:44:58;5.28;;;1.70;;
27778;SDS011;30234;48.090;11.464;2023-07-13T09:49:02;3.45;;;1.90;;
27778;SDS011;30234;48.090;11.464;2023-07-13T09:53:03;3.38;;;1.30;;
27778;SDS011;30234;48.090;11.464;2023-07-13T09:57:11;2.90;;;1.35;;
27778;SDS011;30234;48.090;11.464;2023-07-13T10:01:31;5.38;;;1.60;;
27778;SDS011;30234;48.090;11.464;2023-07-13T10:05:38;5.38;;;1.58;;
27778;SDS011;30234;48.090;11.464;2023-07-13T10:09:44;5.85;;;1.23;;
27778;SDS011;30234;48.090;11.464;2023-07-13T10:13:46;3.17;;;1.40;;
27778;SDS011;30234;48.090;11.464;2023-07-13T10:18:00;6.70;;;1.60;;
27778;SDS011;30234;48.090;11.464;2023-07-13T10:22:03;2.53;;;1.30;;
27778;SDS011;30234;48.090;11.464;2023-07-13T10:26:32;5.78;;;1.10;;
27778;SDS011;30234;48.090;11.464;2023-07-13T10:30:38;2.37;;;1.40;;
27778;SDS011;30234;48.090;11.464;2023-07-13T10:34:44;2.25;;;1.13;;
27778;SDS011;30234;48.090;11.464;2023-07-13T10:38:48;6.32;;;1.52;;
27778;SDS011;30234;48.090;11.464;2023-07-13T10:42:51;1.52;;;1.10;;
27778;SDS011;30234;48.090;11.464;2023-07-13T10:46:57;3.33;;;1.40;;
27778;SDS011;30234;48.090;11.464;2023-07-13T10:51:14;3.72;;;1.20;;
27778;SDS011;30234;48.090;11.464;2023-07-13T11:04:17;2.22;;;1.00;;
27778;SDS011;30234;48.090;11.464;2023-07-13T11:16:47;3.00;;;1.23;;
27778;SDS011;30234;48.090;11.464;2023-07-13T11:20:49;3.92;;;1.38;;
27778;SDS011;30234;48.090;11.464;2023-07-13T11:28:59;3.05;;;1.25;;
27778;SDS011;30234;48.090;11.464;2023-07-13T11:37:44;3.40;;;1.40;;
27778;SDS011;30234;48.090;11.464;2023-07-13T11:41:53;3.70;;;1.42;;
27778;SDS011;30234;48.090;11.464;2023-07-13T11:45:58;4.18;;;1.48;;
27778;SDS011;30234;48.090;11.464;2023-07-13T11:50:23;2.42;;;1.25;;
27778;SDS011;30234;48.090;11.464;2023-07-13T11:54:26;3.85;;;1.20;;
27778;SDS011;30234;48.090;11.464;2023-07-13T11:58:30;2.45;;;1.20;;
27778;SDS011;30234;48.090;11.464;2023-07-13T12:02:32;2.58;;;1.08;;
27778;SDS011;30234;48.090;11.464;2023-07-13T12:06:36;2.08;;;1.13;;
27778;SDS011;30234;48.090;11.464;2023-07-13T12:10:39;5.80;;;1.35;;
27778;SDS011;30234;48.090;11.464;2023-07-13T12:14:41;3.92;;;1.15;;
27778;SDS011;30234;48.090;11.464;2023-07-13T12:18:42;1.48;;;1.10;;
27778;SDS011;30234;48.090;11.464;2023-07-13T12:22:48;1.08;;;0.90;;
27778;SDS011;30234;48.090;11.464;2023-07-13T12:26:51;7.05;;;1.60;;
27778;SDS011;30234;48.090;11.464;2023-07-13T12:35:16;2.00;;;1.15;;
27778;SDS011;30234;48.090;11.464;2023-07-13T12:39:20;2.97;;;1.15;;
27778;SDS011;30234;48.090;11.464;2023-07-13T12:43:22;2.25;;;1.05;;
27778;SDS011;30234;48.090;11.464;2023-07-13T12:47:23;2.15;;;1.05;;
27778;SDS011;30234;48.090;11.464;2023-07-13T12:51:25;3.33;;;1.55;;
27778;SDS011;30234;48.090;11.464;2023-07-13T12:55:28;2.40;;;0.95;;
27778;SDS011;30234;48.090;11.464;2023-07-13T12:59:32;1.92;;;1.30;;
27778;SDS011;30234;48.090;11.464;2023-07-13T13:03:34;3.53;;;1.52;;
27778;SDS011;30234;48.090;11.464;2023-07-13T13:07:38;2.17;;;1.15;;
27778;SDS011;30234;48.090;11.464;2023-07-13T13:11:39;3.55;;;1.20;;
27778;SDS011;30234;48.090;11.464;2023-07-13T13:15:40;4.57;;;1.20;;
27778;SDS011;30234;48.090;11.464;2023-07-13T13:19:41;4.00;;;1.30;;
27778;SDS011;30234;48.090;11.464;2023-07-13T13:23:42;5.55;;;1.08;;
27778;SDS011;30234;48.090;11.464;2023-07-13T13:27:44;2.15;;;1.25;;
27778;SDS011;30234;48.090;11.464;2023-07-13T13:31:46;2.00;;;1.20;;
27778;SDS011;30234;48.090;11.464;2023-07-13T13:35:48;2.00;;;0.88;;
27778;SDS011;30234;48.090;11.464;2023-07-13T13:39:49;4.10;;;1.42;;
27778;SDS011;30234;48.090;11.464;2023-07-13T13:43:52;2.50;;;1.30;;
27778;SDS011;30234;48.090;11.464;2023-07-13T13:47:53;4.55;;;1.77;;
27778;SDS011;30234;48.090;11.464;2023-07-13T13:51:55;4.25;;;1.10;;
27778;SDS011;30234;48.090;11.464;2023-07-13T13:55:56;3.50;;;0.95;;
27778;SDS011;30234;48.090;11.464;2023-07-13T13:59:57;3.90;;;1.30;;
27778;SDS011;30234;48.090;11.464;2023-07-13T14:03:58;3.15;;;1.48;;
27778;SDS011;30234;48.090;11.464;2023-07-13T14:07:59;3.15;;;1.10;;
27778;SDS011;30234;48.090;11.464;2023-07-13T14:12:00;3.38;;;1.25;;
27778;SDS011;30234;48.090;11.464;2023-07-13T14:16:01;2.30;;;1.00;;
27778;SDS011;30234;48.090;11.464;2023-07-13T14:20:28;4.38;;;1.10;;
27778;SDS011;30234;48.090;11.464;2023-07-13T14:24:30;2.78;;;0.88;;
27778;SDS011;30234;48.090;11.464;2023-07-13T14:28:31;3.72;;;1.15;;
27778;SDS011;30234;48.090;11.464;2023-07-13T14:32:32;2.70;;;1.05;;
27778;SDS011;30234;48.090;11.464;2023-07-13T14:36:36;4.03;;;1.10;;
27778;SDS011;30234;48.090;11.464;2023-07-13T14:40:42;2.97;;;1.27;;
27778;SDS011;30234;48.090;11.464;2023-07-13T14:44:43;2.03;;;1.10;;
27778;SDS011;30234;48.090;11.464;2023-07-13T14:48:45;1.63;;;0.90;;
27778;SDS011;30234;48.090;11.464;2023-07-13T14:52:48;0.93;;;0.88;;
27778;SDS011;30234;48.090;11.464;2023-07-13T14:57:01;2.55;;;1.13;;
27778;SDS011;30234;48.090;11.464;2023-07-13T15:01:02;1.00;;;0.93;;
27778;SDS011;30234;48.090;11.464;2023-07-13T15:05:05;2.42;;;1.10;;
27778;SDS011;30234;48.090;11.464;2023-07-13T15:09:13;2.38;;;1.33;;
27778;SDS011;30234;48.090;11.464;2023-07-13T15:13:19;3.25;;;1.42;;
27778;SDS011;30234;48.090;11.464;2023-07-13T15:21:38;2.55;;;1.55;;
27778;SDS011;30234;48.090;11.464;2023-07-13T15:25:39;1.52;;;1.05;;
27778;SDS011;30234;48.090;11.464;2023-07-13T15:29:42;4.38;;;1.30;;
27778;SDS011;30234;48.090;11.464;2023-07-13T15:33:43;2.63;;;1.05;;
27778;SDS011;30234;48.090;11.464;2023-07-13T15:37:44;1.67;;;1.08;;
27778;SDS011;30234;48.090;11.464;2023-07-13T15:41:46;3.85;;;1.27;;
27778;SDS011;30234;48.090;11.464;2023-07-13T15:45:48;3.42;;;1.42;;
27778;SDS011;30234;48.090;11.464;2023-07-13T15:49:51;1.70;;;1.20;;
27778;SDS011;30234;48.090;11.464;2023-07-13T15:53:52;3.30;;;1.00;;
27778;SDS011;30234;48.090;11.464;2023-07-13T15:57:56;4.85;;;1.40;;
27778;SDS011;30234;48.090;11.464;2023-07-13T16:01:58;3.85;;;1.30;;
27778;SDS011;30234;48.090;11.464;2023-07-13T16:05:58;2.95;;;1.20;;
27778;SDS011;30234;48.090;11.464;2023-07-13T16:09:59;2.58;;;1.33;;
27778;SDS011;30234;48.090;11.464;2023-07-13T16:14:00;2.67;;;1.13;;
27778;SDS011;30234;48.090;11.464;2023-07-13T16:18:01;2.50;;;1.20;;
27778;SDS011;30234;48.090;11.464;2023-07-13T16:22:05;2.35;;;1.10;;
27778;SDS011;30234;48.090;11.464;2023-07-13T16:26:26;2.88;;;1.40;;
27778;SDS011;30234;48.090;11.464;2023-07-13T16:30:42;5.60;;;1.50;;
27778;SDS011;30234;48.090;11.464;2023-07-13T16:34:43;2.20;;;1.17;;
27778;SDS011;30234;48.090;11.464;2023-07-13T16:38:44;1.75;;;0.98;;
27778;SDS011;30234;48.090;11.464;2023-07-13T16:42:45;2.45;;;1.33;;
27778;SDS011;30234;48.090;11.464;2023-07-13T16:46:47;6.18;;;1.30;;
27778;SDS011;30234;48.090;11.464;2023-07-13T16:50:52;4.07;;;1.10;;
27778;SDS011;30234;48.090;11.464;2023-07-13T16:54:55;4.38;;;1.52;;
27778;SDS011;30234;48.090;11.464;2023-07-13T16:58:56;2.67;;;1.40;;
27778;SDS011;30234;48.090;11.464;2023-07-13T17:02:58;4.20;;;1.38;;
27778;SDS011;30234;48.090;11.464;2023-07-13T17:07:01;2.58;;;1.00;;
27778;SDS011;30234;48.090;11.464;2023-07-13T17:11:05;3.65;;;1.48;;
27778;SDS011;30234;48.090;11.464;2023-07-13T17:15:08;3.58;;;1.00;;
27778;SDS011;30234;48.090;11.464;2023-07-13T17:19:11;3.25;;;1.33;;
27778;SDS011;30234;48.090;11.464;2023-07-13T17:23:13;2.25;;;1.50;;
27778;SDS011;30234;48.090;11.464;2023-07-13T17:27:20;3.47;;;1.30;;
27778;SDS011;30234;48.090;11.464;2023-07-13T17:31:22;4.68;;;1.20;;
27778;SDS011;30234;48.090;11.464;2023-07-13T17:35:25;2.22;;;1.40;;
27778;SDS011;30234;48.090;11.464;2023-07-13T17:39:28;3.20;;;1.35;;
27778;SDS011;30234;48.090;11.464;2023-07-13T17:43:29;4.05;;;1.23;;
27778;SDS011;30234;48.090;11.464;2023-07-13T17:47:31;2.08;;;1.25;;
27778;SDS011;30234;48.090;11.464;2023-07-13T17:51:32;1.90;;;1.42;;
27778;SDS011;30234;48.090;11.464;2023-07-13T17:55:36;7.15;;;1.35;;
27778;SDS011;30234;48.090;11.464;2023-07-13T17:59:37;6.07;;;1.42;;
27778;SDS011;30234;48.090;11.464;2023-07-13T18:03:39;2.88;;;0.88;;
27778;SDS011;30234;48.090;11.464;2023-07-13T18:07:44;2.83;;;1.25;;
27778;SDS011;30234;48.090;11.464;2023-07-13T18:11:46;2.45;;;1.67;;
27778;SDS011;30234;48.090;11.464;2023-07-13T18:15:47;1.80;;;1.15;;
27778;SDS011;30234;48.090;11.464;2023-07-13T18:19:51;1.52;;;1.30;;
27778;SDS011;30234;48.090;11.464;2023-07-13T18:23:52;3.30;;;1.30;;
27778;SDS011;30234;48.090;11.464;2023-07-13T18:27:54;4.10;;;1.05;;
27778;SDS011;30234;48.090;11.464;2023-07-13T18:31:55;4.45;;;1.52;;
27778;SDS011;30234;48.090;11.464;2023-07-13T18:35:58;2.88;;;1.38;;
27778;SDS011;30234;48.090;11.464;2023-07-13T18:40:02;4.85;;;1.63;;
27778;SDS011;30234;48.090;11.464;2023-07-13T18:44:05;3.50;;;1.65;;
27778;SDS011;30234;48.090;11.464;2023-07-13T18:48:14;2.67;;;1.70;;
27778;SDS011;30234;48.090;11.464;2023-07-13T18:52:21;5.38;;;1.40;;
27778;SDS011;30234;48.090;11.464;2023-07-13T18:56:24;1.17;;;1.10;;
27778;SDS011;30234;48.090;11.464;2023-07-13T19:00:25;7.93;;;1.45;;
27778;SDS011;30234;48.090;11.464;2023-07-13T19:04:29;4.90;;;1.63;;
27778;SDS011;30234;48.090;11.464;2023-07-13T19:08:31;2.40;;;1.27;;
27778;SDS011;30234;48.090;11.464;2023-07-13T19:12:33;2.38;;;1.70;;
27778;SDS011;30234;48.090;11.464;2023-07-13T19:16:35;2.15;;;1.70;;
27778;SDS011;30234;48.090;11.464;2023-07-13T19:20:36;4.60;;;1.42;;
27778;SDS011;30234;48.090;11.464;2023-07-13T19:24:37;2.25;;;1.98;;
27778;SDS011;30234;48.090;11.464;2023-07-13T19:28:39;4.80;;;1.38;;
27778;SDS011;30234;48.090;11.464;2023-07-13T19:32:42;4.93;;;1.80;;
27778;SDS011;30234;48.090;11.464;2023-07-13T19:36:45;10.95;;;2.00;;
27778;SDS011;30234;48.090;11.464;2023-07-13T19:40:48;3.35;;;1.63;;
27778;SDS011;30234;48.090;11.464;2023-07-13T19:44:53;3.88;;;1.73;;
27778;SDS011;30234;48.090;11.464;2023-07-13T19:49:01;5.03;;;2.03;;
27778;SDS011;30234;48.090;11.464;2023-07-13T19:53:10;4.13;;;1.48;;
27778;SDS011;30234;48.090;11.464;2023-07-13T19:57:19;2.15;;;1.98;;
27778;SDS011;30234;48.090;11.464;2023-07-13T20:01:24;3.60;;;2.05;;
27778;SDS011;30234;48.090;11.464;2023-07-13T20:05:24;2.67;;;2.25;;
27778;SDS011;30234;48.090;11.464;2023-07-13T20:09:27;1.75;;;1.52;;
27778;SDS011;30234;48.090;11.464;2023-07-13T20:13:28;2.05;;;1.80;;
27778;SDS011;30234;48.090;11.464;2023-07-13T20:17:36;4.90;;;1.88;;
27778;SDS011;30234;48.090;11.464;2023-07-13T20:21:38;4.95;;;1.55;;
27778;SDS011;30234;48.090;11.464;2023-07-13T20:25:40;2.30;;;1.75;;
27778;SDS011;30234;48.090;11.464;2023-07-13T20:29:44;4.63;;;2.20;;
27778;SDS011;30234;48.090;11.464;2023-07-13T20:33:46;2.10;;;1.85;;
27778;SDS011;30234;48.090;11.464;2023-07-13T20:37:46;4.78;;;2.50;;
27778;SDS011;30234;48.090;11.464;2023-07-13T20:41:51;4.20;;;1.73;;
27778;SDS011;30234;48.090;11.464;2023-07-13T20:45:56;5.47;;;2.30;;
27778;SDS011;30234;48.090;11.464;2023-07-13T20:49:59;3.08;;;2.00;;
27778;SDS011;30234;48.090;11.464;2023-07-13T20:54:00;5.18;;;2.05;;
27778;SDS011;30234;48.090;11.464;2023-07-13T20:58:01;1.90;;;1.48;;
27778;SDS011;30234;48.090;11.464;2023-07-13T21:02:10;6.32;;;2.10;;
27778;SDS011;30234;48.090;11.464;2023-07-13T21:06:33;4.03;;;2.08;;
27778;SDS011;30234;48.090;11.464;2023-07-13T21:10:35;4.53;;;1.88;;
27778;SDS011;30234;48.090;11.464;2023-07-13T21:14:36;4.13;;;1.90;;
27778;SDS011;30234;48.090;11.464;2023-07-13T21:18:37;3.75;;;2.13;;
27778;SDS011;30234;48.090;11.464;2023-07-13T21:22:39;3.78;;;2.05;;
27778;SDS011;30234;48.090;11.464;2023-07-13T21:26:40;5.13;;;2.10;;
27778;SDS011;30234;48.090;11.464;2023-07-13T21:30:40;4.13;;;2.10;;
27778;SDS011;30234;48.090;11.464;2023-07-13T21:34:43;6.00;;;2.35;;
27778;SDS011;30234;48.090;11.464;2023-07-13T21:38:45;5.28;;;2.10;;
27778;SDS011;30234;48.090;11.464;2023-07-13T21:42:59;5.15;;;2.00;;
27778;SDS011;30234;48.090;11.464;2023-07-13T21:47:00;2.17;;;1.95;;
27778;SDS011;30234;48.090;11.464;2023-07-13T21:51:01;4.03;;;2.08;;
27778;SDS011;30234;48.090;11.464;2023-07-13T21:55:01;3.25;;;2.55;;
27778;SDS011;30234;48.090;11.464;2023-07-13T21:59:07;4.18;;;2.10;;
27778;SDS011;30234;48.090;11.464;2023-07-13T22:03:39;3.50;;;2.10;;
27778;SDS011;30234;48.090;11.464;2023-07-13T22:07:41;3.83;;;1.85;;
27778;SDS011;30234;48.090;11.464;2023-07-13T22:11:43;6.00;;;2.17;;
27778;SDS011;30234;48.090;11.464;2023-07-13T22:15:44;4.10;;;2.22;;
27778;SDS011;30234;48.090;11.464;2023-07-13T22:19:45;2.33;;;2.10;;
27778;SDS011;30234;48.090;11.464;2023-07-13T22:23:46;2.55;;;2.20;;
27778;SDS011;30234;48.090;11.464;2023-07-13T22:27:48;4.75;;;2.03;;
27778;SDS011;30234;48.090;11.464;2023-07-13T22:31:50;3.38;;;3.05;;
27778;SDS011;30234;48.090;11.464;2023-07-13T22:35:51;3.45;;;2.08;;
27778;SDS011;30234;48.090;11.464;2023-07-13T22:39:52;5.78;;;2.13;;
27778;SDS011;30234;48.090;11.464;2023-07-13T22:43:53;3.67;;;2.30;;
27778;SDS011;30234;48.090;11.464;2023-07-13T22:47:54;2.15;;;1.88;;
27778;SDS011;30234;48.090;11.464;2023-07-13T22:51:56;2.90;;;2.08;;
27778;SDS011;30234;48.090;11.464;2023-07-13T22:55:59;3.88;;;1.98;;
27778;SDS011;30234;48.090;11.464;2023-07-13T23:00:02;2.33;;;1.90;;
27778;SDS011;30234;48.090;11.464;2023-07-13T23:04:15;3.63;;;1.95;;
27778;SDS011;30234;48.090;11.464;2023-07-13T23:08:24;2.97;;;2.05;;
27778;SDS011;30234;48.090;11.464;2023-07-13T23:12:25;2.80;;;1.90;;
27778;SDS011;30234;48.090;11.464;2023-07-13T23:16:30;4.78;;;1.63;;
27778;SDS011;30234;48.090;11.464;2023-07-13T23:20:32;2.38;;;1.98;;
27778;SDS011;30234;48.090;11.464;2023-07-13T23:24:35;3.10;;;1.75;;
27778;SDS011;30234;48.090;11.464;2023-07-13T23:28:36;3.63;;;2.10;;
27778;SDS011;30234;48.090;11.464;2023-07-13T23:32:37;2.83;;;1.75;;
27778;SDS011;30234;48.090;11.464;2023-07-13T23:36:38;3.22;;;2.05;;
27778;SDS011;30234;48.090;11.464;2023-07-13T23:40:39;2.40;;;1.80;;
27778;SDS011;30234;48.090;11.464;2023-07-13T23:44:40;3.95;;;1.70;;
27778;SDS011;30234;48.090;11.464;2023-07-13T23:48:41;4.07;;;2.10;;
27778;SDS011;30234;48.090;11.464;2023-07-13T23:52:42;1.60;;;1.50;;
27778;SDS011;30234;48.090;11.464;2023-07-13T23:56:44;2.97;;;1.73;;
